createdAt,value
2023-04-14T00:01:39.795Z,11.78
2023-04-14T00:02:53.673Z,11.81
2023-04-14T00:04:03.916Z,11.80
2023-04-14T00:05:10.055Z,11.79
2023-04-14T00:06:38.219Z,11.82
2023-04-14T00:07:55.127Z,11.84
2023-04-14T00:09:02.480Z,11.86
2023-04-14T00:10:29.207Z,11.88
2023-04-14T00:11:34.401Z,11.90
2023-04-14T00:12:42.232Z,11.82
2023-04-14T00:15:17.881Z,11.85
2023-04-14T00:16:24.000Z,11.84
2023-04-14T00:17:35.642Z,11.86
2023-04-14T00:18:43.027Z,11.86
2023-04-14T00:19:48.141Z,11.86
2023-04-14T00:20:56.326Z,11.85
2023-04-14T00:22:08.631Z,11.85
2023-04-14T00:23:17.474Z,11.85
2023-04-14T00:24:30.398Z,11.86
2023-04-14T00:25:36.420Z,11.84
2023-04-14T00:26:41.668Z,11.84
2023-04-14T00:27:47.484Z,11.86
2023-04-14T00:29:00.222Z,11.86
2023-04-14T00:30:08.703Z,11.85
2023-04-14T00:31:14.206Z,11.85
2023-04-14T00:32:24.334Z,11.85
2023-04-14T00:33:41.113Z,11.83
2023-04-14T00:34:49.872Z,11.82
2023-04-14T00:36:10.104Z,11.77
2023-04-14T00:37:18.622Z,11.78
2023-04-14T00:38:25.792Z,11.76
2023-04-14T00:39:33.651Z,11.77
2023-04-14T00:40:46.485Z,11.76
2023-04-14T00:41:56.072Z,11.75
2023-04-14T00:43:04.019Z,11.75
2023-04-14T00:44:18.806Z,11.74
2023-04-14T00:45:27.642Z,11.73
2023-04-14T00:46:34.207Z,11.66
2023-04-14T00:47:50.543Z,11.68
2023-04-14T00:48:59.378Z,11.65
2023-04-14T00:50:28.913Z,11.61
2023-04-14T00:51:35.969Z,11.58
2023-04-14T00:52:46.223Z,11.56
2023-04-14T00:53:52.090Z,11.58
2023-04-14T00:54:55.867Z,11.59
2023-04-14T00:56:01.305Z,11.57
2023-04-14T00:57:12.850Z,11.59
2023-04-14T00:58:16.483Z,11.57
2023-04-14T00:59:20.492Z,11.57
2023-04-14T01:00:24.228Z,11.53
2023-04-14T01:01:33.767Z,11.56
2023-04-14T01:02:37.917Z,11.51
2023-04-14T01:03:42.040Z,11.50
2023-04-14T01:04:54.198Z,11.48
2023-04-14T01:06:22.160Z,11.48
2023-04-14T01:07:30.437Z,11.45
2023-04-14T01:08:35.039Z,11.46
2023-04-14T01:09:46.252Z,11.47
2023-04-14T01:11:08.787Z,11.45
2023-04-14T01:12:55.029Z,11.47
2023-04-14T01:14:28.451Z,11.44
2023-04-14T01:15:59.873Z,11.40
2023-04-14T01:17:33.552Z,11.39
2023-04-14T01:19:18.301Z,11.36
2023-04-14T01:20:43.820Z,11.33
2023-04-14T01:22:19.219Z,11.31
2023-04-14T01:23:40.675Z,11.30
2023-04-14T01:25:10.167Z,11.28
2023-04-14T01:26:35.663Z,11.26
2023-04-14T01:28:25.298Z,11.19
2023-04-14T01:30:37.807Z,11.17
2023-04-14T01:32:10.758Z,11.13
2023-04-14T01:33:22.663Z,11.12
2023-04-14T01:35:15.115Z,11.14
2023-04-14T01:36:32.841Z,11.15
2023-04-14T01:37:50.600Z,11.15
2023-04-14T01:38:56.755Z,11.16
2023-04-14T01:40:19.607Z,11.17
2023-04-14T01:41:30.374Z,11.18
2023-04-14T01:42:50.082Z,11.16
2023-04-14T01:44:27.197Z,11.17
2023-04-14T01:45:54.352Z,11.17
2023-04-14T01:47:16.339Z,11.18
2023-04-14T01:48:21.545Z,11.18
2023-04-14T01:49:31.295Z,11.19
2023-04-14T01:50:48.171Z,11.21
2023-04-14T01:51:59.344Z,11.20
2023-04-14T01:53:27.677Z,11.21
2023-04-14T01:56:05.961Z,11.24
2023-04-14T01:57:23.100Z,11.24
2023-04-14T01:58:36.114Z,11.24
2023-04-14T01:59:45.098Z,11.23
2023-04-14T02:00:53.085Z,11.27
2023-04-14T02:02:14.402Z,11.28
2023-04-14T02:03:23.623Z,11.28
2023-04-14T02:04:37.159Z,11.29
2023-04-14T02:05:44.327Z,11.30
2023-04-14T02:06:52.937Z,11.29
2023-04-14T02:08:11.267Z,11.25
2023-04-14T02:09:24.779Z,11.26
2023-04-14T02:10:32.676Z,11.24
2023-04-14T02:11:38.564Z,11.26
2023-04-14T02:12:46.479Z,11.25
2023-04-14T02:13:57.362Z,11.23
2023-04-14T02:15:03.029Z,11.21
2023-04-14T02:16:21.872Z,11.22
2023-04-14T02:17:34.886Z,11.24
2023-04-14T02:18:43.096Z,11.26
2023-04-14T02:19:50.585Z,11.26
2023-04-14T02:21:00.141Z,11.29
2023-04-14T02:22:14.538Z,11.30
2023-04-14T02:23:29.766Z,11.25
2023-04-14T02:24:45.906Z,11.27
2023-04-14T02:26:12.431Z,11.22
2023-04-14T02:27:37.012Z,11.24
2023-04-14T02:29:02.953Z,11.22
2023-04-14T02:32:11.878Z,11.17
2023-04-14T02:33:22.967Z,11.16
2023-04-14T02:34:37.915Z,11.16
2023-04-14T02:36:15.752Z,11.13
2023-04-14T02:37:38.265Z,11.19
2023-04-14T02:39:14.981Z,11.22
2023-04-14T02:40:32.961Z,11.22
2023-04-14T02:41:44.055Z,11.20
2023-04-14T02:43:03.531Z,11.21
2023-04-14T02:44:33.028Z,11.22
2023-04-14T02:45:45.979Z,11.13
2023-04-14T02:47:05.182Z,11.21
2023-04-14T02:48:18.904Z,11.21
2023-04-14T02:49:24.992Z,11.18
2023-04-14T02:50:33.541Z,11.20
2023-04-14T02:51:42.799Z,11.21
2023-04-14T02:52:54.290Z,11.20
2023-04-14T02:54:29.217Z,11.17
2023-04-14T02:55:39.864Z,11.22
2023-04-14T02:56:52.278Z,11.19
2023-04-14T02:58:00.473Z,11.18
2023-04-14T02:59:09.207Z,11.19
2023-04-14T03:00:14.977Z,11.19
2023-04-14T03:01:20.527Z,11.16
2023-04-14T03:02:25.685Z,11.16
2023-04-14T03:03:31.031Z,11.14
2023-04-14T03:04:38.715Z,11.16
2023-04-14T03:05:45.376Z,11.17
2023-04-14T03:06:50.247Z,11.13
2023-04-14T03:07:55.484Z,11.16
2023-04-14T03:09:01.480Z,11.19
2023-04-14T03:10:10.701Z,11.18
2023-04-14T03:11:18.174Z,11.22
2023-04-14T03:12:26.895Z,11.17
2023-04-14T03:13:41.547Z,11.20
2023-04-14T03:14:52.104Z,11.17
2023-04-14T03:16:02.706Z,11.21
2023-04-14T03:17:24.294Z,11.24
2023-04-14T03:18:31.398Z,11.21
2023-04-14T03:19:43.612Z,11.23
2023-04-14T03:20:54.814Z,11.22
2023-04-14T03:22:04.227Z,11.23
2023-04-14T03:23:20.346Z,11.23
2023-04-14T03:24:40.520Z,11.24
2023-04-14T03:25:50.142Z,11.24
2023-04-14T03:27:25.027Z,11.26
2023-04-14T03:28:38.188Z,11.22
2023-04-14T03:29:55.527Z,11.27
2023-04-14T03:31:05.820Z,11.24
2023-04-14T03:32:31.769Z,11.20
2023-04-14T03:33:39.239Z,11.23
2023-04-14T03:34:58.605Z,11.23
2023-04-14T03:36:08.042Z,11.23
2023-04-14T03:37:19.081Z,11.20
2023-04-14T03:38:31.258Z,11.22
2023-04-14T03:39:39.498Z,11.22
2023-04-14T03:40:53.414Z,11.23
2023-04-14T03:42:05.266Z,11.19
2023-04-14T03:43:13.569Z,11.18
2023-04-14T03:44:25.971Z,11.17
2023-04-14T03:45:33.697Z,11.16
2023-04-14T03:47:04.305Z,11.17
2023-04-14T03:48:19.464Z,11.15
2023-04-14T03:49:29.483Z,11.15
2023-04-14T03:50:46.725Z,11.16
2023-04-14T03:51:54.834Z,11.17
2023-04-14T03:53:01.449Z,11.21
2023-04-14T03:54:18.567Z,11.20
2023-04-14T03:55:24.786Z,11.21
2023-04-14T03:56:32.024Z,11.17
2023-04-14T03:57:44.484Z,11.18
2023-04-14T03:58:58.821Z,11.22
2023-04-14T04:00:18.056Z,11.19
2023-04-14T04:01:27.042Z,11.16
2023-04-14T04:02:36.888Z,11.17
2023-04-14T04:03:46.968Z,11.18
2023-04-14T04:04:51.675Z,11.16
2023-04-14T04:05:59.390Z,11.17
2023-04-14T04:07:36.074Z,11.16
2023-04-14T04:08:41.749Z,11.13
2023-04-14T04:09:53.442Z,11.07
2023-04-14T04:11:02.216Z,11.07
2023-04-14T04:12:23.148Z,11.09
2023-04-14T04:13:36.850Z,11.07
2023-04-14T04:14:41.651Z,11.09
2023-04-14T04:15:58.902Z,11.09
2023-04-14T04:17:25.038Z,11.10
2023-04-14T04:18:35.289Z,11.02
2023-04-14T04:19:47.208Z,11.05
2023-04-14T04:20:55.429Z,11.08
2023-04-14T04:22:06.483Z,11.10
2023-04-14T04:23:20.932Z,11.08
2023-04-14T04:24:33.506Z,11.10
2023-04-14T04:25:54.719Z,11.11
2023-04-14T04:27:02.889Z,11.11
2023-04-14T04:28:16.589Z,11.08
2023-04-14T04:29:34.456Z,11.11
2023-04-14T04:30:42.105Z,11.15
2023-04-14T04:31:48.634Z,11.11
2023-04-14T04:32:59.653Z,11.07
2023-04-14T04:34:11.363Z,11.12
2023-04-14T04:35:18.367Z,11.15
2023-04-14T04:36:26.863Z,11.18
2023-04-14T04:37:39.963Z,11.19
2023-04-14T04:38:50.147Z,11.18
2023-04-14T04:39:58.468Z,11.21
2023-04-14T04:41:30.525Z,11.20
2023-04-14T04:42:34.855Z,11.21
2023-04-14T04:43:48.808Z,11.26
2023-04-14T04:44:53.691Z,11.29
2023-04-14T04:46:54.785Z,11.31
2023-04-14T04:48:05.459Z,11.32
2023-04-14T04:49:13.729Z,11.32
2023-04-14T04:50:18.960Z,11.37
2023-04-14T04:51:26.482Z,11.37
2023-04-14T04:52:33.224Z,11.37
2023-04-14T04:53:37.251Z,11.35
2023-04-14T04:54:41.002Z,11.36
2023-04-14T04:55:44.965Z,11.38
2023-04-14T04:56:48.511Z,11.32
2023-04-14T04:57:52.413Z,11.34
2023-04-14T04:58:56.433Z,11.32
2023-04-14T04:59:59.913Z,11.33
2023-04-14T05:01:11.501Z,11.31
2023-04-14T05:02:15.602Z,11.36
2023-04-14T05:03:19.442Z,11.35
2023-04-14T05:04:23.191Z,11.38
2023-04-14T05:05:30.538Z,11.39
2023-04-14T05:06:39.762Z,11.43
2023-04-14T05:07:50.413Z,11.43
2023-04-14T05:09:00.667Z,11.40
2023-04-14T05:10:04.839Z,11.45
2023-04-14T05:11:26.523Z,11.45
2023-04-14T05:12:31.742Z,11.49
2023-04-14T05:13:38.489Z,11.43
2023-04-14T05:14:42.369Z,11.42
2023-04-14T05:15:50.804Z,11.40
2023-04-14T05:16:57.122Z,11.44
2023-04-14T05:18:01.856Z,11.47
2023-04-14T05:19:07.314Z,11.48
2023-04-14T05:20:16.112Z,11.44
2023-04-14T05:21:21.050Z,11.47
2023-04-14T05:22:28.537Z,11.56
2023-04-14T05:23:38.361Z,11.60
2023-04-14T05:24:48.952Z,11.56
2023-04-14T05:26:11.257Z,11.56
2023-04-14T05:27:26.305Z,11.58
2023-04-14T05:28:32.128Z,11.64
2023-04-14T05:29:43.874Z,11.66
2023-04-14T05:30:51.441Z,11.67
2023-04-14T05:31:55.926Z,11.69
2023-04-14T05:33:03.023Z,11.76
2023-04-14T05:34:11.145Z,11.74
2023-04-14T05:35:14.808Z,11.73
2023-04-14T05:36:32.630Z,11.77
2023-04-14T05:37:40.006Z,11.83
2023-04-14T05:38:45.630Z,11.77
2023-04-14T05:39:53.507Z,11.77
2023-04-14T05:40:59.575Z,11.79
2023-04-14T05:42:07.988Z,11.85
2023-04-14T05:43:17.872Z,11.89
2023-04-14T05:44:29.299Z,11.96
2023-04-14T05:45:36.947Z,11.96
2023-04-14T05:46:41.391Z,11.92
2023-04-14T05:47:52.179Z,11.90
2023-04-14T05:49:02.016Z,11.87
2023-04-14T05:50:15.677Z,11.84
2023-04-14T05:51:28.471Z,11.87
2023-04-14T05:52:37.696Z,11.83
2023-04-14T05:53:43.752Z,11.84
2023-04-14T05:54:50.819Z,11.82
2023-04-14T05:55:57.918Z,11.84
2023-04-14T05:57:05.392Z,11.92
2023-04-14T05:58:20.022Z,11.95
2023-04-14T05:59:23.680Z,12.00
2023-04-14T06:00:30.454Z,12.04
2023-04-14T06:01:36.371Z,12.05
2023-04-14T06:02:45.342Z,12.10
2023-04-14T06:03:58.911Z,12.14
2023-04-14T06:05:08.168Z,12.18
2023-04-14T06:06:12.782Z,12.24
2023-04-14T06:07:16.495Z,12.26
2023-04-14T06:08:20.994Z,12.19
2023-04-14T06:09:25.262Z,12.23
2023-04-14T06:10:29.509Z,12.28
2023-04-14T06:11:43.369Z,12.29
2023-04-14T06:12:56.610Z,12.38
2023-04-14T06:14:11.988Z,12.45
2023-04-14T06:15:20.709Z,12.48
2023-04-14T06:16:26.942Z,12.51
2023-04-14T06:17:31.212Z,12.57
2023-04-14T06:18:42.942Z,12.58
2023-04-14T06:19:53.977Z,12.60
2023-04-14T06:21:00.057Z,12.67
2023-04-14T06:22:09.331Z,12.82
2023-04-14T06:23:22.088Z,12.93
2023-04-14T06:24:27.723Z,13.09
2023-04-14T06:25:34.125Z,13.21
2023-04-14T06:26:39.942Z,13.37
2023-04-14T06:29:13.186Z,13.90
2023-04-14T06:30:23.397Z,14.10
2023-04-14T06:31:45.352Z,14.57
2023-04-14T06:32:54.364Z,14.85
2023-04-14T06:34:06.362Z,15.14
2023-04-14T06:35:18.996Z,15.43
2023-04-14T06:36:29.489Z,15.66
2023-04-14T06:37:33.165Z,15.84
2023-04-14T06:38:37.872Z,16.05
2023-04-14T06:39:41.520Z,16.19
2023-04-14T06:40:46.682Z,16.38
2023-04-14T06:41:51.623Z,16.34
2023-04-14T06:42:59.666Z,16.40
2023-04-14T06:44:06.286Z,16.55
2023-04-14T06:45:17.449Z,16.74
2023-04-14T06:46:31.017Z,16.85
2023-04-14T06:47:35.684Z,16.94
2023-04-14T06:48:41.205Z,17.03
2023-04-14T06:49:46.600Z,16.82
2023-04-14T06:50:58.236Z,16.75
2023-04-14T06:52:09.855Z,16.79
2023-04-14T06:53:15.538Z,16.73
2023-04-14T06:54:19.396Z,16.55
2023-04-14T06:55:23.450Z,16.44
2023-04-14T06:56:27.193Z,16.51
2023-04-14T06:57:31.143Z,16.60
2023-04-14T06:58:35.036Z,16.87
2023-04-14T06:59:41.566Z,17.16
2023-04-14T07:00:45.499Z,17.48
2023-04-14T07:01:49.131Z,17.48
2023-04-14T07:02:53.287Z,17.83
2023-04-14T07:03:57.039Z,17.98
2023-04-14T07:05:02.729Z,18.24
2023-04-14T07:06:15.590Z,18.51
2023-04-14T07:07:19.423Z,18.73
2023-04-14T07:08:33.744Z,19.00
2023-04-14T07:09:50.078Z,19.12
2023-04-14T07:11:09.406Z,19.32
2023-04-14T07:12:35.508Z,19.20
2023-04-14T07:13:42.245Z,19.27
2023-04-14T07:14:52.242Z,19.32
2023-04-14T07:16:02.444Z,19.27
2023-04-14T07:17:15.543Z,18.91
2023-04-14T07:18:19.164Z,18.85
2023-04-14T07:19:27.470Z,18.80
2023-04-14T07:20:33.202Z,18.69
2023-04-14T07:21:38.553Z,18.71
2023-04-14T07:22:51.984Z,18.76
2023-04-14T07:23:58.754Z,18.51
2023-04-14T07:25:06.731Z,18.37
2023-04-14T07:26:11.968Z,18.49
2023-04-14T07:27:15.943Z,18.48
2023-04-14T07:28:30.167Z,18.87
2023-04-14T07:29:40.712Z,19.08
2023-04-14T07:30:44.639Z,19.47
2023-04-14T07:31:48.613Z,19.74
2023-04-14T07:32:55.059Z,19.96
2023-04-14T07:33:59.281Z,20.11
2023-04-14T07:35:11.162Z,20.33
2023-04-14T07:36:16.941Z,20.26
2023-04-14T07:37:24.979Z,20.56
2023-04-14T07:38:29.962Z,20.71
2023-04-14T07:39:34.161Z,20.65
2023-04-14T07:40:40.211Z,20.82
2023-04-14T07:41:45.353Z,20.99
2023-04-14T07:42:52.154Z,21.14
2023-04-14T07:44:13.431Z,21.29
2023-04-14T07:45:31.591Z,21.44
2023-04-14T07:46:43.055Z,21.80
2023-04-14T07:47:52.327Z,21.99
2023-04-14T07:49:00.395Z,22.12
2023-04-14T07:50:04.880Z,22.41
2023-04-14T07:51:16.074Z,22.68
2023-04-14T07:52:20.046Z,22.63
2023-04-14T07:53:28.202Z,22.81
2023-04-14T07:54:31.950Z,22.48
2023-04-14T07:55:35.628Z,22.42
2023-04-14T07:56:51.022Z,22.10
2023-04-14T07:57:59.620Z,21.74
2023-04-14T07:59:04.001Z,21.30
2023-04-14T08:00:12.328Z,21.17
2023-04-14T08:01:17.092Z,20.83
2023-04-14T08:02:25.369Z,20.66
2023-04-14T08:03:33.068Z,20.48
2023-04-14T08:04:38.834Z,20.25
2023-04-14T08:05:43.994Z,20.16
2023-04-14T08:06:54.701Z,19.83
2023-04-14T08:08:00.735Z,19.64
2023-04-14T08:09:09.299Z,19.33
2023-04-14T08:10:15.889Z,19.20
2023-04-14T08:11:23.665Z,19.09
2023-04-14T08:12:30.936Z,18.90
2023-04-14T08:13:39.962Z,18.71
2023-04-14T08:14:49.254Z,18.57
2023-04-14T08:15:56.143Z,18.53
2023-04-14T08:17:01.335Z,18.28
2023-04-14T08:18:06.866Z,18.04
2023-04-14T08:19:13.565Z,18.03
2023-04-14T08:20:26.155Z,18.14
2023-04-14T08:21:37.216Z,17.98
2023-04-14T08:22:43.332Z,18.11
2023-04-14T08:23:51.561Z,18.13
2023-04-14T08:25:01.325Z,18.14
2023-04-14T08:26:13.777Z,17.90
2023-04-14T08:27:20.341Z,17.81
2023-04-14T08:28:25.303Z,17.80
2023-04-14T08:29:35.171Z,17.77
2023-04-14T08:30:41.976Z,17.84
2023-04-14T08:31:46.666Z,17.82
2023-04-14T08:32:51.154Z,17.81
2023-04-14T08:33:55.880Z,17.86
2023-04-14T08:35:37.655Z,17.82
2023-04-14T08:36:28.917Z,17.70
2023-04-14T08:37:33.974Z,17.77
2023-04-14T08:38:37.511Z,17.76
2023-04-14T08:39:43.958Z,17.80
2023-04-14T08:41:00.380Z,17.94
2023-04-14T08:42:06.246Z,17.82
2023-04-14T08:43:15.271Z,17.89
2023-04-14T08:44:22.841Z,17.86
2023-04-14T08:45:30.932Z,17.82
2023-04-14T08:46:38.147Z,17.85
2023-04-14T08:47:45.988Z,17.81
2023-04-14T08:49:03.511Z,17.85
2023-04-14T08:50:23.942Z,18.08
2023-04-14T08:51:44.095Z,18.44
2023-04-14T08:52:52.764Z,18.88
2023-04-14T08:53:57.685Z,19.10
2023-04-14T08:55:07.022Z,19.28
2023-04-14T08:56:18.186Z,19.36
2023-04-14T08:57:26.380Z,19.48
2023-04-14T08:58:31.005Z,19.61
2023-04-14T08:59:35.466Z,19.63
2023-04-14T09:00:42.549Z,19.64
2023-04-14T09:01:46.624Z,19.49
2023-04-14T09:02:52.189Z,19.48
2023-04-14T09:03:58.161Z,19.47
2023-04-14T09:05:13.814Z,19.34
2023-04-14T09:06:24.634Z,19.16
2023-04-14T09:07:35.235Z,18.92
2023-04-14T09:08:39.470Z,18.79
2023-04-14T09:09:58.241Z,18.77
2023-04-14T09:11:10.286Z,18.56
2023-04-14T09:12:23.255Z,18.53
2023-04-14T09:13:38.764Z,18.48
2023-04-14T09:14:47.675Z,18.45
2023-04-14T09:15:54.633Z,18.38
2023-04-14T09:17:02.893Z,18.40
2023-04-14T09:18:25.768Z,18.41
2023-04-14T09:20:34.682Z,18.40
2023-04-14T09:21:28.779Z,18.34
2023-04-14T09:22:37.476Z,18.21
2023-04-14T09:23:51.773Z,18.19
2023-04-14T09:26:32.717Z,18.17
2023-04-14T09:27:49.293Z,18.17
2023-04-14T09:29:01.248Z,18.19
2023-04-14T09:30:20.326Z,18.14
2023-04-14T09:31:27.165Z,18.08
2023-04-14T09:32:40.105Z,18.11
2023-04-14T09:33:50.918Z,18.14
2023-04-14T09:35:10.717Z,18.14
2023-04-14T09:36:28.246Z,18.19
2023-04-14T09:37:48.310Z,18.31
2023-04-14T09:40:36.692Z,18.35
2023-04-14T09:41:48.151Z,18.39
2023-04-14T09:42:51.718Z,18.44
2023-04-14T09:43:55.726Z,18.55
2023-04-14T09:45:01.343Z,18.53
2023-04-14T09:46:10.135Z,18.55
2023-04-14T09:47:16.638Z,18.56
2023-04-14T09:48:26.864Z,18.61
2023-04-14T09:49:31.895Z,18.59
2023-04-14T09:51:00.073Z,18.59
2023-04-14T09:52:19.015Z,18.65
2023-04-14T09:53:33.835Z,18.60
2023-04-14T09:54:46.956Z,18.64
2023-04-14T09:55:52.296Z,18.71
2023-04-14T09:57:13.024Z,18.71
2023-04-14T09:58:27.310Z,18.67
2023-04-14T09:59:39.003Z,18.71
2023-04-14T10:00:52.681Z,18.78
2023-04-14T10:02:11.711Z,18.73
2023-04-14T10:03:45.572Z,18.78
2023-04-14T10:05:09.728Z,18.74
2023-04-14T10:06:30.207Z,18.77
2023-04-14T10:07:44.342Z,18.78
2023-04-14T10:08:55.144Z,18.78
2023-04-14T10:10:11.629Z,18.76
2023-04-14T10:11:29.731Z,18.68
2023-04-14T10:12:38.639Z,18.65
2023-04-14T10:13:46.978Z,18.66
2023-04-14T10:14:53.333Z,18.62
2023-04-14T10:15:58.580Z,18.58
2023-04-14T10:17:15.626Z,18.55
2023-04-14T10:18:22.985Z,18.56
2023-04-14T10:19:39.802Z,18.50
2023-04-14T10:20:45.652Z,18.47
2023-04-14T10:21:53.511Z,18.43
2023-04-14T10:22:57.728Z,18.44
2023-04-14T10:24:02.423Z,18.45
2023-04-14T10:25:19.394Z,18.49
2023-04-14T10:26:23.902Z,18.48
2023-04-14T10:27:31.795Z,18.50
2023-04-14T10:28:43.119Z,18.49
2023-04-14T10:29:50.655Z,18.46
2023-04-14T10:31:01.955Z,18.52
2023-04-14T10:32:10.222Z,18.54
2023-04-14T10:33:15.658Z,18.60
2023-04-14T10:34:24.966Z,18.65
2023-04-14T10:35:45.957Z,18.70
2023-04-14T10:36:53.484Z,18.73
2023-04-14T10:38:01.622Z,18.75
2023-04-14T10:39:08.424Z,18.80
2023-04-14T10:40:21.626Z,18.80
2023-04-14T10:41:48.238Z,18.82
2023-04-14T10:42:57.800Z,18.81
2023-04-14T10:44:02.685Z,18.82
2023-04-14T10:45:14.249Z,18.78
2023-04-14T10:46:42.205Z,18.78
2023-04-14T10:47:58.675Z,18.79
2023-04-14T10:49:03.595Z,18.80
2023-04-14T10:50:19.617Z,18.83
2023-04-14T10:51:37.019Z,18.77
2023-04-14T10:53:09.302Z,18.72
2023-04-14T10:54:19.625Z,18.72
2023-04-14T10:55:28.450Z,18.69
2023-04-14T10:56:31.945Z,18.69
2023-04-14T10:57:43.849Z,18.68
2023-04-14T10:58:58.928Z,18.71
2023-04-14T11:00:23.468Z,18.72
2023-04-14T11:01:32.846Z,18.65
2023-04-14T11:02:36.691Z,18.65
2023-04-14T11:03:46.396Z,18.64
2023-04-14T11:05:13.245Z,18.68
2023-04-14T11:06:52.033Z,18.60
2023-04-14T11:08:02.373Z,18.50
2023-04-14T11:09:32.498Z,18.44
2023-04-14T11:10:37.009Z,18.41
2023-04-14T11:11:42.795Z,18.36
2023-04-14T11:13:09.523Z,18.28
2023-04-14T11:14:14.286Z,18.28
2023-04-14T11:15:22.927Z,18.23
2023-04-14T11:16:35.841Z,18.22
2023-04-14T11:17:43.875Z,18.21
2023-04-14T11:18:52.405Z,18.19
2023-04-14T11:20:00.652Z,18.19
2023-04-14T11:21:07.941Z,18.18
2023-04-14T11:22:46.349Z,18.20
2023-04-14T11:23:53.406Z,18.26
2023-04-14T11:25:12.966Z,18.27
2023-04-14T11:26:17.222Z,18.31
2023-04-14T11:27:21.027Z,18.33
2023-04-14T11:28:32.549Z,18.37
2023-04-14T11:29:43.062Z,18.40
2023-04-14T11:30:48.820Z,18.44
2023-04-14T11:32:07.843Z,18.49
2023-04-14T11:33:16.814Z,18.53
2023-04-14T11:34:30.739Z,18.58
2023-04-14T11:35:39.076Z,18.60
2023-04-14T11:36:44.222Z,18.62
2023-04-14T11:37:50.158Z,18.67
2023-04-14T11:38:54.534Z,18.70
2023-04-14T11:40:11.029Z,18.72
2023-04-14T11:41:24.037Z,18.77
2023-04-14T11:42:50.489Z,18.79
2023-04-14T11:43:56.776Z,18.72
2023-04-14T11:45:04.232Z,18.67
2023-04-14T11:46:22.473Z,18.67
2023-04-14T11:47:32.924Z,18.66
2023-04-14T11:49:00.315Z,18.70
2023-04-14T11:50:09.099Z,18.69
2023-04-14T11:51:19.513Z,18.67
2023-04-14T11:52:29.324Z,18.67
2023-04-14T11:53:40.823Z,18.69
2023-04-14T11:54:46.877Z,18.70
2023-04-14T11:56:02.284Z,18.72
2023-04-14T11:57:19.004Z,18.74
2023-04-14T11:58:31.961Z,18.76
2023-04-14T11:59:47.278Z,18.79
2023-04-14T12:00:57.764Z,18.82
2023-04-14T12:02:08.072Z,18.90
2023-04-14T12:03:12.080Z,18.96
2023-04-14T12:04:16.807Z,18.98
2023-04-14T12:05:31.505Z,19.04
2023-04-14T12:06:41.971Z,19.01
2023-04-14T12:07:51.358Z,19.05
2023-04-14T12:09:04.495Z,19.11
2023-04-14T12:10:12.715Z,19.12
2023-04-14T12:11:18.445Z,19.14
2023-04-14T12:12:34.883Z,19.18
2023-04-14T12:13:44.302Z,19.21
2023-04-14T12:14:50.603Z,19.23
2023-04-14T12:15:56.123Z,19.28
2023-04-14T12:17:10.603Z,19.28
2023-04-14T12:19:26.340Z,19.27
2023-04-14T12:20:54.840Z,19.30
2023-04-14T12:21:59.750Z,19.36
2023-04-14T12:23:06.023Z,19.40
2023-04-14T12:24:17.569Z,19.41
2023-04-14T12:25:24.263Z,19.35
2023-04-14T12:26:29.371Z,19.32
2023-04-14T12:27:37.087Z,19.34
2023-04-14T12:28:42.229Z,19.37
2023-04-14T12:29:48.334Z,19.43
2023-04-14T12:30:56.753Z,19.48
2023-04-14T12:32:06.330Z,19.48
2023-04-14T12:33:19.088Z,19.47
2023-04-14T12:34:32.504Z,19.42
2023-04-14T12:35:37.859Z,19.43
2023-04-14T12:36:50.203Z,19.42
2023-04-14T12:37:56.921Z,19.42
2023-04-14T12:39:06.679Z,19.41
2023-04-14T12:40:12.509Z,19.46
2023-04-14T12:41:29.931Z,19.54
2023-04-14T12:42:53.172Z,19.58
2023-04-14T12:44:14.429Z,19.65
2023-04-14T12:45:19.866Z,19.67
2023-04-14T12:46:28.571Z,19.66
2023-04-14T12:47:36.856Z,19.70
2023-04-14T12:48:48.811Z,19.69
2023-04-14T12:49:55.143Z,19.71
2023-04-14T12:51:17.527Z,19.72
2023-04-14T12:52:40.986Z,19.66
2023-04-14T12:53:47.806Z,19.62
2023-04-14T12:54:55.160Z,19.62
2023-04-14T12:56:13.316Z,19.58
2023-04-14T12:57:17.036Z,19.51
2023-04-14T12:58:21.487Z,19.50
2023-04-14T12:59:25.070Z,19.50
2023-04-14T13:00:29.145Z,19.47
2023-04-14T13:01:32.900Z,19.45
2023-04-14T13:02:36.709Z,19.42
2023-04-14T13:03:52.935Z,19.45
2023-04-14T13:04:57.843Z,19.45
2023-04-14T13:06:02.077Z,19.49
2023-04-14T13:07:19.283Z,19.45
2023-04-14T13:08:24.799Z,19.43
2023-04-14T13:09:32.152Z,19.40
2023-04-14T13:10:37.624Z,19.42
2023-04-14T13:11:45.048Z,19.46
2023-04-14T13:12:48.885Z,19.41
2023-04-14T13:13:55.071Z,19.42
2023-04-14T13:14:59.069Z,19.37
2023-04-14T13:16:20.602Z,19.33
2023-04-14T13:17:28.888Z,19.36
2023-04-14T13:18:36.265Z,19.39
2023-04-14T13:19:42.342Z,19.37
2023-04-14T13:20:55.624Z,19.34
2023-04-14T13:22:01.543Z,19.27
2023-04-14T13:23:08.763Z,19.21
2023-04-14T13:24:14.805Z,19.15
2023-04-14T13:25:19.142Z,19.15
2023-04-14T13:26:25.754Z,19.13
2023-04-14T13:27:34.785Z,19.11
2023-04-14T13:28:41.705Z,19.08
2023-04-14T13:29:47.576Z,19.09
2023-04-14T13:30:55.908Z,19.10
2023-04-14T13:32:03.180Z,19.11
2023-04-14T13:33:08.846Z,19.14
2023-04-14T13:34:19.684Z,19.11
2023-04-14T13:35:27.930Z,19.09
2023-04-14T13:36:37.135Z,19.07
2023-04-14T13:37:44.687Z,19.06
2023-04-14T13:38:57.701Z,19.04
2023-04-14T13:40:02.214Z,19.01
2023-04-14T13:41:16.569Z,19.03
2023-04-14T13:42:24.143Z,18.96
2023-04-14T13:43:36.859Z,18.98
2023-04-14T13:44:45.512Z,18.91
2023-04-14T13:45:50.041Z,18.86
2023-04-14T13:47:06.391Z,18.82
2023-04-14T13:48:14.012Z,18.78
2023-04-14T13:49:20.029Z,18.74
2023-04-14T13:50:24.077Z,18.69
2023-04-14T13:51:28.906Z,18.70
2023-04-14T13:52:32.753Z,18.68
2023-04-14T13:53:36.603Z,18.71
2023-04-14T13:54:41.179Z,18.72
2023-04-14T13:55:44.873Z,18.75
2023-04-14T13:56:51.191Z,18.76
2023-04-14T13:57:58.049Z,18.70
2023-04-14T13:59:02.282Z,18.72
2023-04-14T14:00:10.255Z,18.67
2023-04-14T14:01:13.930Z,18.63
2023-04-14T14:02:17.583Z,18.63
2023-04-14T14:03:21.561Z,18.63
2023-04-14T14:04:25.837Z,18.67
2023-04-14T14:05:29.810Z,18.67
2023-04-14T14:06:34.213Z,18.67
2023-04-14T14:07:38.841Z,18.65
2023-04-14T14:08:43.117Z,18.63
2023-04-14T14:09:46.842Z,18.63
2023-04-14T14:10:50.626Z,18.60
2023-04-14T14:11:55.149Z,18.59
2023-04-14T14:12:58.946Z,18.57
2023-04-14T14:14:02.998Z,18.60
2023-04-14T14:15:07.925Z,18.59
2023-04-14T14:16:11.713Z,18.54
2023-04-14T14:17:17.853Z,18.51
2023-04-14T14:18:21.796Z,18.52
2023-04-14T14:19:25.398Z,18.52
2023-04-14T14:20:30.407Z,18.44
2023-04-14T14:21:34.525Z,18.44
2023-04-14T14:22:46.005Z,18.43
2023-04-14T14:23:49.767Z,18.45
2023-04-14T14:25:06.936Z,18.44
2023-04-14T14:26:20.731Z,18.45
2023-04-14T14:27:24.845Z,18.43
2023-04-14T14:28:32.146Z,18.46
2023-04-14T14:29:37.425Z,18.43
2023-04-14T14:30:47.740Z,18.46
2023-04-14T14:31:54.840Z,18.48
2023-04-14T14:33:00.360Z,18.45
2023-04-14T14:34:05.534Z,18.41
2023-04-14T14:35:10.613Z,18.40
2023-04-14T14:36:15.385Z,18.37
2023-04-14T14:37:20.237Z,18.33
2023-04-14T14:38:23.836Z,18.29
2023-04-14T14:39:30.303Z,18.29
2023-04-14T14:40:33.940Z,18.25
2023-04-14T14:41:38.012Z,18.28
2023-04-14T14:42:41.672Z,18.30
2023-04-14T14:43:45.520Z,18.30
2023-04-14T14:44:49.079Z,18.25
2023-04-14T14:45:52.688Z,18.23
2023-04-14T14:46:58.846Z,18.24
2023-04-14T14:48:02.540Z,18.22
2023-04-14T14:49:14.686Z,18.17
2023-04-14T14:50:20.698Z,18.13
2023-04-14T14:51:30.557Z,18.13
2023-04-14T14:52:34.719Z,18.11
2023-04-14T14:53:38.456Z,18.10
2023-04-14T14:54:42.359Z,18.07
2023-04-14T14:55:45.762Z,18.04
2023-04-14T14:56:49.204Z,18.03
2023-04-14T14:57:52.972Z,18.02
2023-04-14T14:58:57.447Z,18.04
2023-04-14T15:00:00.965Z,17.99
2023-04-14T15:01:06.075Z,17.98
2023-04-14T15:02:10.632Z,17.99
2023-04-14T15:03:14.634Z,18.01
2023-04-14T15:04:18.729Z,17.98
2023-04-14T15:05:22.307Z,17.96
2023-04-14T15:06:26.136Z,17.97
2023-04-14T15:07:29.729Z,17.97
2023-04-14T15:08:34.514Z,17.98
2023-04-14T15:09:39.319Z,17.97
2023-04-14T15:10:42.950Z,17.90
2023-04-14T15:11:47.714Z,17.89
2023-04-14T15:12:51.945Z,17.90
2023-04-14T15:13:58.816Z,17.88
2023-04-14T15:15:04.728Z,17.92
2023-04-14T15:16:11.732Z,17.90
2023-04-14T15:17:16.737Z,17.91
2023-04-14T15:18:21.958Z,17.92
2023-04-14T15:19:26.075Z,17.90
2023-04-14T15:20:29.605Z,17.86
2023-04-14T15:21:33.355Z,17.86